Time;durP1;ratioP1;P1;durP2;ratioP2;P2;SDS_P1;SDS_P2;PMS_P1;PMS_P2;Temp;Humidity;BMP_temperature;BMP_pressure;BME280_temperature;BME280_humidity;BME280_pressure;Samples;Min_cycle;Max_cycle;Signal;HPM_P1;HPM_P2
2022/03/30 00:01:30;;;;;;;36.20;8.25;;;10.40;69.50;;;;;;5028150;28;20048;-65
2022/03/30 00:03:55;;;;;;;36.70;8.30;;;10.50;69.00;;;;;;5035087;28;20057;-65
2022/03/30 00:06:21;;;;;;;42.85;9.18;;;10.50;69.00;;;;;;5027850;28;20053;-65
2022/03/30 00:08:47;;;;;;;35.15;8.77;;;10.60;68.70;;;;;;5026278;28;20063;-65
2022/03/30 00:11:13;;;;;;;28.42;8.30;;;10.70;68.50;;;;;;5029504;28;20045;-65
2022/03/30 00:13:39;;;;;;;33.60;7.63;;;10.70;69.00;;;;;;5030293;28;20387;-64
2022/03/30 00:16:06;;;;;;;33.75;7.55;;;10.70;68.50;;;;;;5021912;28;20026;-65
2022/03/30 00:18:33;;;;;;;37.47;8.45;;;10.70;69.20;;;;;;5024600;28;20058;-65
2022/03/30 00:20:58;;;;;;;28.58;7.20;;;10.70;69.10;;;;;;5027357;28;20525;-65
2022/03/30 00:23:24;;;;;;;31.30;7.05;;;10.70;68.90;;;;;;5035603;28;20037;-65
2022/03/30 00:25:50;;;;;;;42.20;8.80;;;10.70;69.10;;;;;;5018463;28;20083;-65
2022/03/30 00:28:16;;;;;;;31.98;8.10;;;10.70;68.90;;;;;;5022268;28;20100;-64
2022/03/30 00:30:44;;;;;;;27.63;7.10;;;10.70;69.00;;;;;;5030728;28;20029;-64
2022/03/30 00:33:10;;;;;;;38.78;8.85;;;10.80;69.00;;;;;;5032842;28;20426;-64
2022/03/30 00:35:35;;;;;;;42.75;8.95;;;10.80;68.70;;;;;;5023231;28;20164;-64
2022/03/30 00:38:03;;;;;;;33.88;8.85;;;10.90;68.60;;;;;;5026667;28;20037;-65
2022/03/30 00:40:29;;;;;;;32.33;8.32;;;10.90;69.10;;;;;;5031048;28;20389;-65
2022/03/30 00:42:54;;;;;;;30.60;8.00;;;10.90;68.90;;;;;;5020973;28;20164;-65
2022/03/30 00:45:23;;;;;;;33.97;8.35;;;11.00;69.00;;;;;;5024441;28;20032;-65
2022/03/30 00:47:50;;;;;;;33.78;8.70;;;10.90;70.30;;;;;;5026964;28;20021;-65
2022/03/30 00:50:20;;;;;;;28.88;7.72;;;10.90;69.80;;;;;;5026368;28;20070;-65
2022/03/30 00:52:48;;;;;;;31.02;7.80;;;10.80;70.00;;;;;;5032155;28;20122;-65
2022/03/30 00:55:16;;;;;;;23.33;8.73;;;10.70;73.10;;;;;;5027157;28;20021;-65
2022/03/30 00:57:43;;;;;;;35.72;8.23;;;10.50;73.90;;;;;;5024823;28;20324;-65
2022/03/30 01:00:12;;;;;;;30.13;7.43;;;10.50;72.40;;;;;;5028870;28;20493;-65
2022/03/30 01:02:40;;;;;;;33.05;8.27;;;10.40;72.40;;;;;;5023575;28;20037;-65
2022/03/30 01:05:07;;;;;;;35.83;9.02;;;10.30;73.40;;;;;;5030160;28;20135;-65
2022/03/30 01:07:32;;;;;;;31.70;8.52;;;10.30;73.20;;;;;;5026729;28;20045;-64
2022/03/30 01:09:58;;;;;;;33.80;9.82;;;10.30;73.40;;;;;;5020945;28;20037;-65
2022/03/30 01:12:25;;;;;;;35.30;7.70;;;10.40;72.80;;;;;;5033356;28;20030;-65
2022/03/30 01:14:52;;;;;;;34.88;8.38;;;10.30;75.00;;;;;;5024052;28;20022;-65
2022/03/30 01:17:18;;;;;;;29.45;7.47;;;10.10;74.50;;;;;;5020154;28;20104;-65
2022/03/30 01:19:44;;;;;;;37.22;8.88;;;10.10;74.80;;;;;;5030154;28;20327;-65
2022/03/30 01:22:10;;;;;;;47.33;10.27;;;10.20;73.40;;;;;;5031301;28;20091;-65
2022/03/30 01:24:39;;;;;;;31.75;8.32;;;10.20;73.30;;;;;;5029828;28;20385;-65
2022/03/30 01:27:07;;;;;;;37.75;10.35;;;10.30;73.10;;;;;;5024301;28;20026;-65
2022/03/30 01:32:27;;;;;;;;;;;10.10;76.90;;;;;;5032433;28;20112;-65
2022/03/30 01:34:54;;;;;;;30.25;7.65;;;9.90;77.90;;;;;;5034680;28;19909;-65
2022/03/30 01:37:28;;;;;;;24.77;8.07;;;9.80;77.10;;;;;;5031513;28;20440;-64
2022/03/30 01:39:54;;;;;;;37.47;10.48;;;9.70;77.50;;;;;;5031876;28;20357;-64
2022/03/30 01:42:20;;;;;;;37.75;7.68;;;9.60;77.50;;;;;;5038266;28;20322;-64
2022/03/30 01:44:46;;;;;;;33.53;8.93;;;9.50;78.50;;;;;;5029486;28;20021;-64
2022/03/30 01:47:13;;;;;;;28.80;7.95;;;9.40;78.00;;;;;;5030159;28;20033;-64
2022/03/30 01:49:39;;;;;;;36.25;7.65;;;9.40;78.60;;;;;;5020785;28;20049;-66
2022/03/30 01:52:05;;;;;;;35.55;9.40;;;9.30;78.80;;;;;;5029539;28;20030;-66
2022/03/30 01:54:36;;;;;;;30.80;8.02;;;9.30;79.40;;;;;;5033150;28;20116;-65
2022/03/30 01:57:05;;;;;;;36.47;8.75;;;9.20;80.00;;;;;;5028606;28;20035;-65
2022/03/30 01:59:30;;;;;;;38.28;8.43;;;9.10;79.70;;;;;;5020969;28;20030;-65
2022/03/30 02:01:56;;;;;;;33.08;8.18;;;9.10;79.60;;;;;;5024103;28;20091;-65
2022/03/30 02:04:24;;;;;;;43.53;8.82;;;9.20;78.90;;;;;;5031749;28;20079;-66
2022/03/30 02:06:52;;;;;;;29.10;7.72;;;9.20;78.70;;;;;;5028076;28;20017;-66
2022/03/30 02:09:18;;;;;;;38.17;9.07;;;9.20;79.50;;;;;;5027036;28;20240;-66
2022/03/30 02:11:44;;;;;;;37.35;8.85;;;9.20;80.50;;;;;;5024308;28;20150;-65
2022/03/30 02:14:12;;;;;;;30.33;9.05;;;9.10;80.70;;;;;;5015669;28;20088;-65
2022/03/30 02:16:38;;;;;;;32.97;9.52;;;9.10;79.80;;;;;;5017860;28;20136;-65
2022/03/30 02:19:04;;;;;;;50.58;9.98;;;9.10;79.40;;;;;;5030575;28;20104;-65
2022/03/30 02:21:30;;;;;;;34.08;7.85;;;9.20;79.60;;;;;;5023534;28;20026;-65
2022/03/30 02:23:56;;;;;;;34.17;9.13;;;9.20;79.50;;;;;;5026290;28;20042;-65
2022/03/30 02:26:21;;;;;;;36.42;8.90;;;9.20;79.50;;;;;;5027230;28;20069;-65
2022/03/30 02:28:54;;;;;;;37.05;8.45;;;9.20;80.50;;;;;;5044131;28;20031;-65
2022/03/30 02:31:21;;;;;;;31.30;9.00;;;9.10;80.90;;;;;;5031613;28;20032;-65
2022/03/30 02:33:47;;;;;;;36.15;9.35;;;9.10;80.70;;;;;;5023554;28;20030;-64
2022/03/30 02:36:13;;;;;;;32.80;7.85;;;9.00;80.40;;;;;;5027730;28;20025;-65
2022/03/30 02:38:39;;;;;;;39.38;10.77;;;9.00;80.40;;;;;;5018154;28;20022;-65
2022/03/30 02:41:06;;;;;;;26.83;7.93;;;9.10;79.70;;;;;;5028453;28;20029;-65
2022/03/30 02:43:33;;;;;;;44.80;10.88;;;9.10;79.40;;;;;;5033111;28;20151;-64
2022/03/30 02:45:59;;;;;;;34.85;8.88;;;9.10;78.20;;;;;;5023709;28;20080;-65
2022/03/30 02:48:28;;;;;;;31.50;6.95;;;9.20;80.10;;;;;;5024675;28;20365;-65
2022/03/30 02:50:59;;;;;;;35.85;8.85;;;9.10;80.40;;;;;;5025455;28;20026;-65
2022/03/30 02:53:25;;;;;;;58.25;26.58;;;9.10;79.90;;;;;;5026892;28;20065;-65
2022/03/30 02:55:51;;;;;;;37.08;10.57;;;9.10;79.00;;;;;;5018844;28;20521;-65
2022/03/30 02:58:19;;;;;;;33.78;8.93;;;9.30;78.00;;;;;;5023079;28;20021;-65
2022/03/30 03:00:45;;;;;;;48.70;9.20;;;9.50;77.60;;;;;;5024101;28;20314;-65
2022/03/30 03:03:10;;;;;;;39.40;8.57;;;9.80;76.20;;;;;;5028304;28;20093;-64
2022/03/30 03:05:37;;;;;;;29.85;9.20;;;9.90;75.60;;;;;;5020888;28;20052;-64
2022/03/30 03:08:05;;;;;;;32.85;8.30;;;10.00;75.70;;;;;;5017009;28;20374;-65
2022/03/30 03:10:33;;;;;;;40.88;9.32;;;10.00;75.30;;;;;;5024872;28;20053;-65
2022/03/30 03:12:58;;;;;;;36.03;9.57;;;10.10;75.30;;;;;;5031991;28;20037;-65
2022/03/30 03:15:24;;;;;;;40.95;10.25;;;10.10;74.90;;;;;;5021114;28;20105;-64
2022/03/30 03:17:51;;;;;;;39.25;9.55;;;10.10;74.90;;;;;;5051598;28;20017;-64
2022/03/30 03:20:17;;;;;;;37.78;8.98;;;10.10;75.40;;;;;;5034878;28;20406;-64
2022/03/30 03:22:43;;;;;;;32.15;9.27;;;10.00;75.90;;;;;;5024783;28;20669;-64
2022/03/30 03:25:10;;;;;;;34.03;9.23;;;9.90;76.20;;;;;;5025776;28;20028;-64
2022/03/30 03:27:36;;;;;;;30.38;9.95;;;10.00;76.30;;;;;;5029706;28;20048;-64
2022/03/30 03:30:02;;;;;;;27.85;9.00;;;10.00;76.10;;;;;;5023302;28;20034;-64
2022/03/30 03:32:28;;;;;;;43.75;10.98;;;10.00;76.20;;;;;;5026187;28;20492;-64
2022/03/30 03:34:54;;;;;;;38.42;10.45;;;10.00;76.70;;;;;;5028508;28;20026;-64
2022/03/30 03:37:20;;;;;;;43.72;10.05;;;9.90;77.80;;;;;;5031056;28;20476;-64
2022/03/30 03:39:46;;;;;;;31.00;9.32;;;9.70;79.60;;;;;;5029510;28;20025;-65
2022/03/30 03:42:13;;;;;;;32.80;9.38;;;9.60;80.60;;;;;;5028784;28;20033;-64
2022/03/30 03:44:39;;;;;;;36.42;9.25;;;9.40;82.70;;;;;;5029216;28;20045;-64
2022/03/30 03:47:07;;;;;;;33.92;10.25;;;9.30;82.50;;;;;;5023629;28;20064;-64
2022/03/30 03:49:33;;;;;;;34.15;9.85;;;9.30;83.80;;;;;;5029387;28;20025;-64
2022/03/30 03:51:59;;;;;;;32.20;10.32;;;9.20;84.60;;;;;;5044230;28;20103;-65
2022/03/30 03:54:25;;;;;;;43.30;10.45;;;9.10;85.50;;;;;;5033345;28;20022;-65
2022/03/30 03:56:51;;;;;;;35.13;10.80;;;8.90;86.50;;;;;;5023392;28;20034;-64
2022/03/30 03:59:16;;;;;;;40.03;11.73;;;8.80;87.30;;;;;;5019548;28;20025;-65
2022/03/30 04:01:45;;;;;;;39.63;10.93;;;8.80;88.00;;;;;;5023831;28;20076;-65
2022/03/30 04:04:11;;;;;;;31.90;11.02;;;8.60;88.50;;;;;;5034039;28;20037;-64
2022/03/30 04:06:36;;;;;;;32.88;11.23;;;8.60;89.80;;;;;;5019506;28;20442;-65
2022/03/30 04:09:03;;;;;;;33.95;10.85;;;8.50;90.90;;;;;;5026654;28;20064;-65
2022/03/30 04:11:29;;;;;;;33.72;10.60;;;8.40;90.70;;;;;;5021243;28;20129;-65
2022/03/30 04:13:55;;;;;;;44.33;11.35;;;8.30;91.90;;;;;;5027600;28;20112;-65
2022/03/30 04:16:21;;;;;;;37.63;10.93;;;8.40;92.40;;;;;;5025550;28;20026;-65
2022/03/30 04:18:46;;;;;;;27.25;10.60;;;8.50;91.80;;;;;;5030473;28;20104;-65
2022/03/30 04:21:12;;;;;;;34.28;11.10;;;8.40;92.70;;;;;;5023227;28;20045;-65
2022/03/30 04:23:38;;;;;;;39.80;16.05;;;8.20;93.40;;;;;;5022457;28;20030;-65
2022/03/30 04:26:04;;;;;;;41.08;11.23;;;8.10;94.80;;;;;;5028355;28;20453;-65
2022/03/30 04:28:30;;;;;;;35.85;10.00;;;8.00;94.90;;;;;;5029176;28;20143;-65
2022/03/30 04:30:56;;;;;;;36.95;11.27;;;7.90;95.20;;;;;;5032481;28;20029;-65
2022/03/30 04:33:22;;;;;;;38.58;10.82;;;7.80;95.60;;;;;;5029719;28;20021;-65
2022/03/30 04:35:50;;;;;;;42.83;12.48;;;7.70;95.40;;;;;;5028242;28;20041;-64
2022/03/30 04:38:19;;;;;;;31.08;13.52;;;7.70;95.40;;;;;;5033101;28;20021;-64
2022/03/30 04:40:45;;;;;;;34.28;13.07;;;7.60;95.60;;;;;;5025971;28;20481;-64
2022/03/30 04:43:11;;;;;;;39.63;12.38;;;7.50;95.90;;;;;;5029170;28;20093;-66
2022/03/30 04:45:36;;;;;;;37.28;11.75;;;7.50;95.60;;;;;;5023654;28;20034;-66
2022/03/30 04:48:02;;;;;;;31.77;12.10;;;7.50;94.90;;;;;;5026474;28;20044;-66
2022/03/30 04:50:28;;;;;;;34.80;12.25;;;7.50;94.90;;;;;;5030458;28;20022;-66
2022/03/30 04:52:56;;;;;;;39.65;14.13;;;7.50;93.90;;;;;;5026499;28;20073;-66
2022/03/30 04:55:22;;;;;;;38.00;13.27;;;7.40;93.60;;;;;;5029927;28;20049;-66
2022/03/30 04:57:50;;;;;;;36.00;12.93;;;7.40;92.80;;;;;;5024877;28;20033;-66
2022/03/30 05:00:16;;;;;;;41.17;14.85;;;7.40;92.60;;;;;;5030853;28;20809;-66
2022/03/30 05:02:45;;;;;;;38.58;13.15;;;7.40;92.60;;;;;;5021760;28;20067;-65
2022/03/30 05:05:11;;;;;;;34.45;12.52;;;7.30;92.60;;;;;;5023354;28;20117;-65
2022/03/30 05:07:38;;;;;;;35.88;15.25;;;7.30;92.30;;;;;;5021342;28;20056;-65
2022/03/30 05:10:05;;;;;;;34.28;11.80;;;7.30;92.10;;;;;;5018347;28;20044;-65
2022/03/30 05:12:32;;;;;;;37.05;13.05;;;7.20;93.00;;;;;;5029353;28;20430;-66
2022/03/30 05:14:57;;;;;;;36.03;13.60;;;7.20;93.10;;;;;;5035703;28;20029;-66
2022/03/30 05:17:23;;;;;;;36.40;14.85;;;7.10;92.80;;;;;;5035574;28;20113;-65
2022/03/30 05:19:51;;;;;;;34.83;12.98;;;7.10;91.90;;;;;;5025071;28;20022;-66
2022/03/30 05:22:17;;;;;;;40.33;12.55;;;7.20;91.60;;;;;;5026140;28;20367;-65
2022/03/30 05:24:43;;;;;;;35.35;12.63;;;7.20;93.00;;;;;;5017488;28;20054;-65
2022/03/30 05:27:12;;;;;;;48.05;14.13;;;7.10;93.00;;;;;;5018556;28;20049;-65
2022/03/30 05:29:37;;;;;;;37.55;15.60;;;7.10;92.40;;;;;;5016016;28;20518;-65
2022/03/30 05:32:06;;;;;;;29.05;12.52;;;7.10;91.70;;;;;;5024875;28;20056;-65
2022/03/30 05:34:38;;;;;;;34.97;13.13;;;7.10;91.20;;;;;;5017929;28;20057;-65
2022/03/30 05:37:04;;;;;;;36.05;12.50;;;7.20;90.70;;;;;;5025900;28;20089;-65
2022/03/30 05:39:31;;;;;;;46.67;14.73;;;7.20;91.90;;;;;;5023089;28;20033;-65
2022/03/30 05:41:57;;;;;;;39.92;13.68;;;7.20;91.80;;;;;;5033671;28;20092;-65
2022/03/30 05:44:22;;;;;;;29.05;12.65;;;7.20;91.40;;;;;;5034049;28;20096;-65
2022/03/30 05:46:48;;;;;;;35.92;13.52;;;7.20;91.00;;;;;;5036820;28;20168;-65
2022/03/30 05:49:14;;;;;;;35.63;13.38;;;7.30;90.80;;;;;;5028429;28;20646;-65
2022/03/30 05:51:40;;;;;;;36.65;13.77;;;7.30;90.60;;;;;;5019800;28;20026;-65
2022/03/30 05:54:05;;;;;;;34.80;13.13;;;7.40;90.00;;;;;;5031627;28;20091;-66
2022/03/30 05:59:15;;;;;;;30.83;11.43;;;7.40;90.80;;;;;;5015717;28;20136;-65
2022/03/30 06:01:41;;;;;;;37.92;12.10;;;7.40;91.90;;;;;;5021085;28;20112;-65
2022/03/30 06:04:07;;;;;;;35.47;12.25;;;7.40;92.10;;;;;;5023094;28;20033;-65
2022/03/30 06:06:37;;;;;;;31.67;11.43;;;7.40;91.90;;;;;;5021960;28;20034;-66
2022/03/30 06:09:06;;;;;;;42.47;16.75;;;7.50;92.70;;;;;;5020942;28;20569;-66
2022/03/30 06:11:32;;;;;;;34.35;13.85;;;7.50;92.50;;;;;;5023934;28;20068;-66
2022/03/30 06:13:58;;;;;;;37.17;16.13;;;7.50;91.90;;;;;;5015126;28;20026;-65
2022/03/30 06:16:25;;;;;;;33.63;14.18;;;7.50;91.30;;;;;;5016438;28;20021;-65
2022/03/30 06:18:51;;;;;;;35.13;15.38;;;7.50;91.10;;;;;;5016330;28;20022;-66
2022/03/30 06:21:16;;;;;;;37.17;15.43;;;7.50;91.20;;;;;;5016802;28;20049;-66
2022/03/30 06:23:42;;;;;;;37.20;15.90;;;7.50;90.30;;;;;;5019281;28;20041;-66
2022/03/30 06:26:11;;;;;;;35.78;15.50;;;7.60;90.30;;;;;;5017015;28;20571;-66
2022/03/30 06:28:36;;;;;;;38.90;17.17;;;7.50;90.80;;;;;;5034972;28;20025;-66
2022/03/30 06:31:03;;;;;;;43.60;17.50;;;7.50;90.50;;;;;;5035625;28;20032;-66
2022/03/30 06:33:29;;;;;;;39.20;16.48;;;7.50;90.60;;;;;;5034653;28;20037;-66
2022/03/30 06:35:55;;;;;;;44.10;18.10;;;7.50;90.30;;;;;;5035219;28;20068;-66
2022/03/30 06:38:21;;;;;;;35.15;16.85;;;7.50;89.70;;;;;;5024935;28;20049;-66
2022/03/30 06:40:47;;;;;;;37.50;14.77;;;7.70;89.40;;;;;;5035934;28;20076;-66
2022/03/30 06:43:14;;;;;;;36.88;12.77;;;7.80;90.10;;;;;;5034652;28;20034;-66
2022/03/30 06:45:39;;;;;;;34.90;11.80;;;7.80;92.10;;;;;;5014935;28;20065;-66
2022/03/30 06:48:06;;;;;;;36.67;14.13;;;7.80;92.80;;;;;;5029877;28;20057;-66
2022/03/30 06:50:35;;;;;;;28.90;12.35;;;7.80;91.70;;;;;;5024709;28;20109;-66
2022/03/30 06:53:01;;;;;;;33.45;11.25;;;7.90;91.60;;;;;;5030337;28;20033;-66
2022/03/30 06:55:27;;;;;;;36.38;10.50;;;7.90;93.00;;;;;;5030228;28;20018;-66
2022/03/30 06:57:58;;;;;;;37.65;11.20;;;7.80;94.40;;;;;;5026423;28;20033;-66
2022/03/30 07:00:24;;;;;;;34.42;10.70;;;7.80;94.40;;;;;;5038849;28;20017;-66
2022/03/30 07:02:49;;;;;;;26.75;10.48;;;7.70;94.30;;;;;;5026879;28;20478;-66
2022/03/30 07:05:15;;;;;;;35.50;14.13;;;7.70;93.50;;;;;;5027700;28;20029;-66
2022/03/30 07:10:27;;;;;;;33.45;13.27;;;7.80;91.60;;;;;;5028265;28;20055;-66
2022/03/30 07:12:53;;;;;;;35.25;15.05;;;7.80;90.90;;;;;;5039649;28;20330;-66
2022/03/30 07:15:20;;;;;;;30.90;13.13;;;7.80;90.90;;;;;;5030853;28;20036;-66
2022/03/30 07:17:55;;;;;;;32.25;10.80;;;7.80;91.20;;;;;;5019611;28;20109;-66
2022/03/30 07:20:23;;;;;;;36.45;13.73;;;7.80;90.70;;;;;;5020814;28;20148;-66
2022/03/30 07:22:50;;;;;;;41.53;12.73;;;7.80;90.70;;;;;;5023606;28;20038;-66
2022/03/30 07:25:18;;;;;;;31.35;10.93;;;7.80;90.80;;;;;;5025631;28;20025;-66
2022/03/30 07:27:47;;;;;;;42.42;12.60;;;7.80;91.50;;;;;;5024600;28;20083;-65
2022/03/30 07:30:14;;;;;;;35.38;10.30;;;7.80;92.60;;;;;;5037992;28;20025;-64
2022/03/30 07:32:43;;;;;;;29.83;11.48;;;7.80;94.10;;;;;;5036852;28;20358;-65
2022/03/30 07:35:11;;;;;;;36.58;11.95;;;7.80;93.40;;;;;;5035381;28;20017;-64
2022/03/30 07:37:38;;;;;;;33.75;10.75;;;7.80;94.20;;;;;;5038057;28;20026;-67
2022/03/30 07:40:06;;;;;;;31.98;9.88;;;7.80;96.30;;;;;;5035642;28;20025;-66
2022/03/30 07:42:32;;;;;;;34.67;9.95;;;7.80;97.00;;;;;;5018827;28;20124;-66
2022/03/30 07:44:58;;;;;;;28.10;8.80;;;7.80;97.00;;;;;;5018231;28;20342;-66
2022/03/30 07:47:25;;;;;;;38.88;11.07;;;7.80;97.70;;;;;;5019896;28;20441;-67
2022/03/30 07:49:54;;;;;;;31.70;10.25;;;7.90;97.60;;;;;;5038921;28;20061;-66
2022/03/30 07:52:23;;;;;;;27.63;9.70;;;7.90;97.50;;;;;;5038392;28;20037;-65
2022/03/30 07:54:49;;;;;;;37.05;9.60;;;7.90;98.00;;;;;;5018941;28;20018;-66
2022/03/30 07:57:23;;;;;;;28.23;8.90;;;7.90;96.90;;;;;;5019512;28;20022;-66
2022/03/30 07:59:49;;;;;;;33.50;10.15;;;8.00;98.00;;;;;;5024613;28;20014;-66
2022/03/30 08:02:15;;;;;;;34.17;9.48;;;8.10;97.00;;;;;;5037257;28;20399;-66
2022/03/30 08:04:42;;;;;;;36.88;9.95;;;8.10;96.90;;;;;;5018925;28;20048;-66
2022/03/30 08:07:07;;;;;;;32.20;9.05;;;8.20;97.70;;;;;;5034628;28;20026;-66
2022/03/30 08:09:33;;;;;;;29.17;8.73;;;8.20;97.80;;;;;;5035190;28;20033;-66
2022/03/30 08:11:59;;;;;;;28.00;8.13;;;8.20;98.00;;;;;;5018800;28;20029;-66
2022/03/30 08:14:24;;;;;;;22.95;8.25;;;8.20;98.00;;;;;;5023048;28;20410;-65
2022/03/30 08:16:50;;;;;;;30.42;8.20;;;8.30;97.70;;;;;;5018845;28;20030;-66
2022/03/30 08:19:16;;;;;;;27.55;8.15;;;8.30;98.00;;;;;;5034905;28;20033;-66
2022/03/30 08:24:25;;;;;;;26.50;8.18;;;8.50;98.00;;;;;;5018731;28;20053;-65
2022/03/30 08:26:51;;;;;;;28.30;7.90;;;8.60;97.70;;;;;;5034439;28;20037;-65
2022/03/30 08:29:21;;;;;;;24.55;7.95;;;8.60;97.80;;;;;;5034646;28;20029;-65
2022/03/30 08:31:48;;;;;;;28.63;8.20;;;8.70;97.60;;;;;;5033365;28;20029;-65
2022/03/30 08:34:15;;;;;;;23.33;7.63;;;8.90;97.80;;;;;;5036876;28;20052;-65
2022/03/30 08:36:43;;;;;;;22.80;8.27;;;8.90;97.70;;;;;;5018334;28;20050;-65
2022/03/30 08:39:11;;;;;;;24.90;7.45;;;9.00;97.60;;;;;;5018384;28;20480;-66
2022/03/30 08:41:45;;;;;;;34.22;9.70;;;9.00;97.30;;;;;;5019254;28;20029;-66
2022/03/30 08:44:14;;;;;;;25.47;7.27;;;9.00;97.50;;;;;;5017249;28;20385;-65
2022/03/30 08:46:41;;;;;;;20.67;6.68;;;9.00;97.10;;;;;;5021199;28;20057;-65
2022/03/30 08:49:10;;;;;;;17.63;6.50;;;9.00;97.10;;;;;;5018102;28;20407;-65
2022/03/30 08:51:39;;;;;;;18.77;7.60;;;9.10;97.10;;;;;;5032699;28;20036;-65
2022/03/30 08:54:05;;;;;;;18.73;6.72;;;9.20;96.80;;;;;;5048847;28;20453;-65
2022/03/30 08:56:31;;;;;;;16.92;5.88;;;9.40;96.50;;;;;;5041496;28;20029;-65
2022/03/30 08:59:02;;;;;;;14.13;6.18;;;9.40;96.30;;;;;;5056564;28;20025;-65
2022/03/30 09:01:33;;;;;;;20.40;6.43;;;9.40;95.90;;;;;;5039224;28;20025;-65
2022/03/30 09:04:00;;;;;;;17.27;6.25;;;9.40;95.70;;;;;;5035164;28;20338;-65
2022/03/30 09:06:38;;;;;;;15.48;5.57;;;9.30;96.60;;;;;;5018950;28;20030;-65
2022/03/30 09:09:04;;;;;;;17.52;6.68;;;9.20;96.10;;;;;;5026025;28;20357;-65
2022/03/30 09:11:56;;;;;;;16.60;5.78;;;9.30;96.30;;;;;;5037517;28;20041;-66
2022/03/30 09:14:25;;;;;;;14.32;5.55;;;9.30;96.50;;;;;;5033218;28;20155;-65
2022/03/30 09:16:59;;;;;;;20.50;6.47;;;9.30;96.40;;;;;;5030747;28;20018;-65
2022/03/30 09:19:30;;;;;;;16.75;5.50;;;9.30;96.70;;;;;;5017536;28;20111;-65
2022/03/30 09:21:59;;;;;;;15.20;6.53;;;9.30;96.60;;;;;;5030396;28;20423;-66
2022/03/30 09:24:31;;;;;;;14.48;6.20;;;9.30;96.70;;;;;;5035690;28;20358;-65
2022/03/30 09:26:59;;;;;;;22.52;6.47;;;9.40;96.90;;;;;;5030741;28;20030;-64
2022/03/30 09:29:27;;;;;;;22.08;6.68;;;9.40;96.70;;;;;;5029176;28;20319;-65
2022/03/30 09:31:53;;;;;;;17.80;6.78;;;9.40;96.90;;;;;;5017169;28;20076;-65
2022/03/30 09:34:20;;;;;;;14.38;6.18;;;9.30;96.50;;;;;;5031916;28;20108;-65
2022/03/30 09:36:50;;;;;;;21.67;6.32;;;9.30;96.60;;;;;;5035117;28;20118;-65
2022/03/30 09:39:36;;;;;;;15.60;5.90;;;9.30;96.70;;;;;;5036760;28;20370;-65
2022/03/30 09:42:08;;;;;;;18.60;5.93;;;9.20;97.00;;;;;;5023493;28;20061;-65
2022/03/30 09:44:53;;;;;;;14.02;5.38;;;9.20;96.80;;;;;;5025288;28;20036;-65
2022/03/30 09:47:21;;;;;;;17.23;7.32;;;9.10;97.20;;;;;;5021617;28;20030;-64
2022/03/30 09:49:53;;;;;;;18.13;5.65;;;9.10;97.20;;;;;;5016835;28;20029;-64
2022/03/30 09:52:27;;;;;;;13.20;5.32;;;9.10;97.20;;;;;;5018000;28;20021;-65
2022/03/30 09:54:57;;;;;;;;;;;9.20;97.30;;;;;;5017239;28;20018;-65
2022/03/30 09:57:29;;;;;;;21.05;8.57;;;9.30;97.20;;;;;;5030959;28;19994;-64
2022/03/30 10:00:18;;;;;;;16.98;8.00;;;9.40;97.50;;;;;;5021730;28;20362;-65
2022/03/30 10:02:47;;;;;;;19.35;7.35;;;9.50;96.90;;;;;;5036470;28;20307;-65
2022/03/30 10:05:21;;;;;;;12.75;5.80;;;9.50;96.90;;;;;;5035751;28;20061;-64
2022/03/30 10:07:48;;;;;;;20.95;14.43;;;9.40;96.50;;;;;;5036839;28;20541;-65
2022/03/30 10:10:19;;;;;;;18.67;7.03;;;9.50;97.20;;;;;;5019793;28;20054;-65
2022/03/30 10:12:45;;;;;;;18.05;6.40;;;9.60;96.90;;;;;;5017204;28;20041;-65
2022/03/30 10:15:12;;;;;;;16.67;8.07;;;9.70;96.90;;;;;;5016183;28;20335;-66
2022/03/30 10:17:39;;;;;;;20.27;6.03;;;9.80;96.80;;;;;;5018507;28;20079;-64
2022/03/30 10:20:07;;;;;;;16.40;7.50;;;9.80;96.60;;;;;;5016609;28;20030;-64
2022/03/30 10:22:57;;;;;;;23.77;8.93;;;9.70;96.90;;;;;;5025961;28;20104;-64
2022/03/30 10:25:43;;;;;;;20.15;10.05;;;9.60;96.90;;;;;;5030445;28;20034;-63
2022/03/30 10:28:25;;;;;;;17.30;9.13;;;9.60;97.00;;;;;;5016832;28;20029;-63
2022/03/30 10:30:55;;;;;;;25.52;8.40;;;9.60;96.80;;;;;;5026255;28;20029;-63
2022/03/30 10:33:31;;;;;;;26.00;8.15;;;9.70;97.00;;;;;;5035561;28;20103;-65
2022/03/30 10:35:58;;;;;;;14.18;7.18;;;10.00;97.10;;;;;;5024349;28;20440;-66
2022/03/30 10:38:24;;;;;;;21.25;8.07;;;10.20;96.70;;;;;;5033897;28;20391;-65
2022/03/30 10:41:06;;;;;;;22.25;8.40;;;10.60;96.70;;;;;;5026502;28;20097;-65
2022/03/30 10:43:35;;;;;;;16.98;7.65;;;10.90;96.10;;;;;;5027026;28;20025;-65
2022/03/30 10:46:02;;;;;;;21.60;8.02;;;11.10;95.50;;;;;;5028063;28;20109;-65
2022/03/30 10:48:34;;;;;;;28.38;9.48;;;11.10;94.70;;;;;;5027634;28;20034;-66
2022/03/30 10:51:21;;;;;;;22.33;9.15;;;11.10;94.90;;;;;;5022268;28;20113;-65
2022/03/30 10:53:51;;;;;;;20.88;7.63;;;11.20;95.20;;;;;;5014832;28;20038;-65
2022/03/30 10:56:18;;;;;;;20.45;8.52;;;11.00;94.40;;;;;;5029124;28;20021;-65
2022/03/30 10:58:49;;;;;;;20.63;8.98;;;11.10;94.40;;;;;;5032628;28;20022;-65
2022/03/30 11:01:35;;;;;;;18.15;8.65;;;11.30;94.20;;;;;;5039157;28;20022;-65
2022/03/30 11:04:03;;;;;;;18.15;9.18;;;11.10;94.40;;;;;;5035291;28;20377;-64
2022/03/30 11:06:31;;;;;;;24.40;10.20;;;10.70;95.00;;;;;;5031828;28;20033;-65
2022/03/30 11:08:59;;;;;;;22.08;10.20;;;10.50;95.50;;;;;;5023957;28;20045;-65
2022/03/30 11:11:30;;;;;;;19.73;9.95;;;10.40;96.10;;;;;;5015635;28;20049;-65
2022/03/30 11:14:32;;;;;;;22.58;11.30;;;10.50;96.10;;;;;;5030181;28;20079;-65
2022/03/30 11:16:59;;;;;;;17.73;9.00;;;10.60;95.90;;;;;;5025698;28;20022;-65
2022/03/30 11:19:54;;;;;;;21.45;10.68;;;10.80;95.90;;;;;;5015841;28;20030;-65
2022/03/30 11:22:24;;;;;;;35.83;14.52;;;10.80;95.20;;;;;;5032685;28;20112;-65
2022/03/30 11:25:19;;;;;;;26.67;10.95;;;11.20;94.80;;;;;;5026781;28;20429;-65
2022/03/30 11:28:05;;;;;;;20.63;8.45;;;11.60;94.00;;;;;;5016698;28;20149;-65
2022/03/30 11:30:43;;;;;;;24.40;10.27;;;12.00;92.10;;;;;;5018103;28;20102;-65
2022/03/30 11:33:13;;;;;;;18.77;8.45;;;11.90;90.80;;;;;;5035068;28;20029;-65
2022/03/30 11:35:42;;;;;;;21.70;9.32;;;11.80;91.50;;;;;;5032157;28;20017;-65
2022/03/30 11:38:23;;;;;;;20.83;8.25;;;11.70;90.00;;;;;;5033792;28;20037;-66
2022/03/30 11:40:52;;;;;;;19.77;7.97;;;11.40;91.90;;;;;;5017970;28;20026;-65
2022/03/30 11:43:19;;;;;;;20.73;10.15;;;11.10;92.60;;;;;;5024506;28;20025;-65
2022/03/30 11:45:46;;;;;;;21.40;9.25;;;11.10;93.60;;;;;;5019338;28;20026;-65
2022/03/30 11:48:13;;;;;;;18.80;8.10;;;11.50;92.60;;;;;;5034098;28;20041;-65
2022/03/30 11:50:47;;;;;;;18.08;8.35;;;11.80;91.40;;;;;;5022204;28;20105;-65
2022/03/30 11:53:18;;;;;;;20.90;9.57;;;12.00;90.60;;;;;;5031803;28;20025;-65
2022/03/30 11:55:59;;;;;;;22.45;8.88;;;12.00;90.60;;;;;;5019228;28;20022;-65
2022/03/30 11:58:34;;;;;;;18.52;9.82;;;11.90;90.10;;;;;;5020526;28;20067;-65
2022/03/30 12:01:08;;;;;;;19.27;10.02;;;12.10;89.90;;;;;;5038824;28;20021;-65
2022/03/30 12:03:34;;;;;;;18.98;8.85;;;12.00;89.30;;;;;;5025714;28;20033;-65
2022/03/30 12:06:03;;;;;;;19.95;9.80;;;11.90;90.40;;;;;;5027782;28;20029;-65
2022/03/30 12:08:46;;;;;;;20.90;8.45;;;12.20;89.20;;;;;;5025547;28;20022;-65
2022/03/30 12:11:12;;;;;;;30.10;8.80;;;12.40;88.00;;;;;;5027896;28;20105;-65
2022/03/30 12:13:38;;;;;;;20.13;7.20;;;12.50;87.10;;;;;;5037315;28;20025;-65
2022/03/30 12:16:11;;;;;;;18.42;7.63;;;12.80;87.40;;;;;;5034191;28;20032;-65
2022/03/30 12:18:46;;;;;;;18.25;6.32;;;13.40;86.90;;;;;;5038317;28;20021;-65
2022/03/30 12:21:17;;;;;;;21.27;7.25;;;13.40;85.40;;;;;;5028110;28;20322;-65
2022/03/30 12:24:04;;;;;;;32.25;8.77;;;13.10;85.80;;;;;;5018439;28;20030;-65
2022/03/30 12:26:31;;;;;;;20.67;7.18;;;13.20;85.40;;;;;;5038268;28;20096;-65
2022/03/30 12:29:07;;;;;;;15.75;6.50;;;12.80;84.60;;;;;;5029019;28;20058;-65
2022/03/30 12:31:51;;;;;;;14.27;6.78;;;12.80;85.20;;;;;;5018368;28;20069;-65
2022/03/30 12:34:19;;;;;;;18.60;7.00;;;12.40;86.10;;;;;;5036178;28;20021;-65
2022/03/30 12:36:58;;;;;;;23.38;8.30;;;12.60;85.70;;;;;;5023798;28;20034;-65
2022/03/30 12:39:33;;;;;;;18.27;7.40;;;12.50;85.90;;;;;;5018308;28;20080;-65
2022/03/30 12:42:08;;;;;;;13.93;6.38;;;12.70;86.80;;;;;;5033313;28;20362;-65
2022/03/30 12:44:46;;;;;;;19.88;7.25;;;12.90;86.20;;;;;;5036915;28;20029;-65
2022/03/30 12:47:30;;;;;;;14.82;6.43;;;13.30;84.70;;;;;;5021148;28;20121;-65
2022/03/30 12:49:57;;;;;;;15.73;6.80;;;13.20;84.80;;;;;;5017522;28;20033;-65
2022/03/30 12:52:32;;;;;;;14.20;5.95;;;13.40;83.80;;;;;;5017918;28;20048;-65
2022/03/30 12:55:15;;;;;;;15.13;6.57;;;13.60;82.70;;;;;;5019234;28;21693;-65
2022/03/30 12:57:55;;;;;;;16.15;6.35;;;13.60;82.20;;;;;;5026764;28;20025;-65
2022/03/30 13:00:34;;;;;;;18.85;6.78;;;13.70;82.70;;;;;;5020735;28;20037;-65